Time;durP1;ratioP1;P1;durP2;ratioP2;P2;SDS_P1;SDS_P2;PMS_P1;PMS_P2;Temp;Humidity;BMP_temperature;BMP_pressure;BME280_temperature;BME280_humidity;BME280_pressure;Samples;Min_cycle;Max_cycle;Signal;HPM_P1;HPM_P2
2023/10/03 00:00:27;;;;;;;53.17;31.60;;;17.40;99.90;;;;;;5050422;28;20045;-69
2023/10/03 00:02:57;;;;;;;50.15;31.80;;;17.30;99.90;;;;;;5050448;28;20037;-69
2023/10/03 00:05:28;;;;;;;60.10;34.20;;;17.30;99.90;;;;;;5049739;28;20060;-69
2023/10/03 00:07:59;;;;;;;48.10;30.73;;;17.50;99.90;;;;;;5050621;28;20037;-69
2023/10/03 00:10:25;;;;;;;52.15;33.05;;;17.50;99.90;;;;;;5049433;28;20045;-69
2023/10/03 00:12:51;;;;;;;45.03;28.08;;;17.30;99.90;;;;;;5040444;28;20535;-69
2023/10/03 00:15:24;;;;;;;46.15;29.83;;;17.40;99.90;;;;;;5050232;28;20052;-69
2023/10/03 00:17:51;;;;;;;51.10;31.70;;;17.50;99.90;;;;;;5032985;28;20044;-69
2023/10/03 00:20:18;;;;;;;49.17;30.40;;;17.50;99.90;;;;;;5051333;28;20394;-69
2023/10/03 00:22:44;;;;;;;44.25;28.17;;;17.50;99.90;;;;;;5053722;28;20045;-69
2023/10/03 00:25:24;;;;;;;45.80;28.98;;;17.50;99.90;;;;;;5053338;28;20106;-69
2023/10/03 00:27:59;;;;;;;43.63;25.95;;;17.50;99.90;;;;;;5037760;28;20040;-69
2023/10/03 00:30:25;;;;;;;44.63;26.63;;;17.50;99.90;;;;;;5054141;28;20048;-69
2023/10/03 00:32:52;;;;;;;43.55;25.63;;;17.30;99.90;;;;;;5054572;28;20406;-69
2023/10/03 00:35:21;;;;;;;45.55;27.40;;;17.40;99.90;;;;;;5037347;28;20045;-70
2023/10/03 00:37:52;;;;;;;43.70;25.58;;;17.40;99.90;;;;;;5054060;28;20657;-69
2023/10/03 00:42:49;;;;;;;48.40;27.75;;;17.60;99.90;;;;;;5062264;28;20056;-70
2023/10/03 00:45:22;;;;;;;39.60;24.90;;;17.60;99.90;;;;;;5074933;28;20049;-69
2023/10/03 00:47:49;;;;;;;42.78;28.65;;;17.50;99.90;;;;;;5073306;28;20549;-69
2023/10/03 00:50:20;;;;;;;40.25;25.67;;;17.70;99.90;;;;;;5073344;28;20053;-69
2023/10/03 00:52:58;;;;;;;45.47;26.73;;;17.60;99.90;;;;;;5062738;28;20055;-70
2023/10/03 00:55:30;;;;;;;41.90;25.95;;;17.60;99.90;;;;;;5053595;28;20486;-70
2023/10/03 01:00:45;;;;;;;42.35;25.27;;;17.80;99.90;;;;;;5082520;28;20072;-70
2023/10/03 01:03:31;;;;;;;40.50;23.05;;;17.80;99.90;;;;;;5055450;28;20040;-69
2023/10/03 01:05:58;;;;;;;37.80;23.90;;;17.70;99.90;;;;;;5073487;28;20049;-70
2023/10/03 01:08:25;;;;;;;42.88;25.20;;;17.60;99.90;;;;;;5068547;28;20479;-70
2023/10/03 01:10:51;;;;;;;36.30;23.58;;;17.70;99.90;;;;;;5053076;28;20080;-70
2023/10/03 01:13:19;;;;;;;40.72;24.17;;;17.80;99.90;;;;;;5067863;28;20115;-69
2023/10/03 01:15:49;;;;;;;39.55;24.23;;;17.70;99.90;;;;;;5072450;28;20032;-70
2023/10/03 01:18:20;;;;;;;38.17;22.80;;;17.60;99.90;;;;;;5072898;28;20485;-70
2023/10/03 01:20:52;;;;;;;31.85;22.13;;;17.80;99.90;;;;;;5072266;28;20044;-70
2023/10/03 01:23:19;;;;;;;39.00;23.95;;;17.70;99.90;;;;;;5058195;28;20045;-69
2023/10/03 01:25:45;;;;;;;38.50;24.65;;;17.70;99.90;;;;;;5052928;28;20124;-69
2023/10/03 01:28:12;;;;;;;39.00;24.80;;;17.80;99.90;;;;;;5068142;28;20137;-70
2023/10/03 01:30:40;;;;;;;40.25;23.60;;;17.70;99.90;;;;;;5052739;28;20521;-69
2023/10/03 01:33:07;;;;;;;39.08;24.60;;;17.80;99.90;;;;;;5052976;28;20126;-70
2023/10/03 01:35:33;;;;;;;38.10;22.13;;;17.70;99.90;;;;;;5052129;28;20049;-70
2023/10/03 01:37:59;;;;;;;35.53;22.83;;;17.70;99.90;;;;;;5052807;28;20037;-70
2023/10/03 01:40:26;;;;;;;32.63;22.55;;;17.70;99.90;;;;;;5052679;28;20045;-69
2023/10/03 01:42:52;;;;;;;36.17;22.48;;;17.70;99.90;;;;;;5052977;28;20668;-69
2023/10/03 01:45:21;;;;;;;32.78;21.63;;;17.70;99.90;;;;;;5036956;28;20107;-69
2023/10/03 01:47:49;;;;;;;37.35;21.75;;;17.70;99.90;;;;;;5052561;28;20044;-69
2023/10/03 01:50:19;;;;;;;36.38;21.85;;;17.70;99.90;;;;;;5066805;28;20085;-70
2023/10/03 01:52:46;;;;;;;36.13;22.38;;;17.70;99.90;;;;;;5072317;28;20052;-70
2023/10/03 01:55:13;;;;;;;34.85;22.63;;;17.60;99.90;;;;;;5055968;28;20378;-70
2023/10/03 01:57:41;;;;;;;38.97;23.85;;;17.60;99.90;;;;;;5071031;28;20048;-69
2023/10/03 02:00:27;;;;;;;36.95;22.55;;;17.60;99.90;;;;;;5071744;28;20048;-69
2023/10/03 02:02:54;;;;;;;40.08;21.77;;;17.60;99.90;;;;;;5055062;28;20044;-69
2023/10/03 02:05:27;;;;;;;34.88;21.73;;;17.50;99.90;;;;;;5071830;28;20036;-70
2023/10/03 02:07:55;;;;;;;40.47;22.70;;;17.50;99.90;;;;;;5072428;28;20036;-69
2023/10/03 02:10:22;;;;;;;35.70;23.58;;;17.50;99.90;;;;;;5068781;28;20045;-69
2023/10/03 02:12:48;;;;;;;37.00;21.10;;;17.50;99.90;;;;;;5051962;28;20559;-70
2023/10/03 02:15:26;;;;;;;31.50;20.85;;;17.50;99.90;;;;;;5064871;28;20067;-70
2023/10/03 02:17:55;;;;;;;39.28;22.08;;;17.50;99.90;;;;;;5051335;28;20048;-70
2023/10/03 02:20:26;;;;;;;33.45;19.35;;;17.50;99.90;;;;;;5051860;28;20144;-70
2023/10/03 02:22:55;;;;;;;33.17;20.20;;;17.40;99.90;;;;;;5053028;28;20082;-70
2023/10/03 02:25:22;;;;;;;32.30;20.45;;;17.40;99.90;;;;;;5051094;28;20041;-70
2023/10/03 02:27:49;;;;;;;34.70;19.73;;;17.40;99.90;;;;;;5051650;28;20048;-69
2023/10/03 02:30:19;;;;;;;31.98;19.80;;;17.40;99.90;;;;;;5051467;28;20435;-69
2023/10/03 02:32:45;;;;;;;33.67;19.50;;;17.40;99.90;;;;;;5051212;28;20397;-70
2023/10/03 02:35:13;;;;;;;32.58;19.20;;;17.40;99.90;;;;;;5052843;28;20086;-70
2023/10/03 02:37:39;;;;;;;38.25;21.17;;;17.50;99.90;;;;;;5051387;28;20056;-69
2023/10/03 02:40:08;;;;;;;34.38;18.52;;;17.40;99.90;;;;;;5052200;28;20055;-70
2023/10/03 02:42:40;;;;;;;32.20;18.77;;;17.50;99.90;;;;;;5051501;28;20053;-69
2023/10/03 02:45:06;;;;;;;35.95;19.13;;;17.60;99.90;;;;;;5056388;28;20132;-70
2023/10/03 02:47:35;;;;;;;32.15;18.85;;;17.60;99.90;;;;;;5051234;28;20041;-70
2023/10/03 02:50:00;;;;;;;30.02;17.73;;;17.60;99.90;;;;;;5051477;28;20092;-69
2023/10/03 02:52:26;;;;;;;28.20;18.45;;;17.70;99.90;;;;;;5051797;28;21145;-70
2023/10/03 02:54:51;;;;;;;34.15;17.63;;;17.60;99.90;;;;;;5059658;28;20445;-69
2023/10/03 02:57:18;;;;;;;32.15;17.63;;;17.70;99.90;;;;;;5031180;28;20045;-69
2023/10/03 02:59:44;;;;;;;30.23;17.65;;;17.80;99.90;;;;;;5034198;28;20041;-70
2023/10/03 03:02:14;;;;;;;32.33;18.35;;;17.80;99.90;;;;;;5072033;28;20036;-69
2023/10/03 03:04:41;;;;;;;39.92;20.48;;;17.80;99.90;;;;;;5069702;28;20473;-70
2023/10/03 03:07:08;;;;;;;30.77;17.85;;;17.80;99.90;;;;;;5071487;28;20086;-69
2023/10/03 03:09:36;;;;;;;28.90;17.15;;;17.70;99.90;;;;;;5071159;28;20087;-70
2023/10/03 03:12:04;;;;;;;28.52;17.75;;;17.80;99.90;;;;;;5071608;28;20458;-69
2023/10/03 03:14:31;;;;;;;31.02;17.27;;;17.80;99.90;;;;;;5064937;28;20043;-70
2023/10/03 03:16:56;;;;;;;30.52;16.85;;;17.90;99.90;;;;;;5067588;28;20124;-69
2023/10/03 03:19:23;;;;;;;30.33;16.10;;;17.90;99.90;;;;;;5052069;28;20124;-69
2023/10/03 03:21:50;;;;;;;28.02;16.58;;;17.90;99.90;;;;;;5051321;28;20611;-69
2023/10/03 03:24:33;;;;;;;28.17;16.52;;;18.00;99.90;;;;;;5054798;28;20099;-69
2023/10/03 03:26:58;;;;;;;31.52;16.70;;;18.00;99.90;;;;;;5051126;28;20045;-70
2023/10/03 03:29:35;;;;;;;29.80;16.17;;;18.00;99.90;;;;;;5049943;28;20433;-69
2023/10/03 03:32:01;;;;;;;30.45;17.77;;;18.10;99.90;;;;;;5051100;28;20075;-69
2023/10/03 03:34:28;;;;;;;26.23;16.48;;;18.10;99.90;;;;;;5050201;28;20551;-69
2023/10/03 03:36:55;;;;;;;29.85;15.73;;;18.10;99.90;;;;;;5050907;28;20533;-69
2023/10/03 03:39:20;;;;;;;29.80;16.90;;;18.10;99.90;;;;;;5050392;28;20517;-69
2023/10/03 03:41:48;;;;;;;33.20;17.25;;;18.20;99.90;;;;;;5066449;28;20045;-69
2023/10/03 03:44:14;;;;;;;28.33;16.90;;;18.20;99.90;;;;;;5051002;28;20124;-68
2023/10/03 03:46:41;;;;;;;28.65;16.58;;;18.20;99.90;;;;;;5070895;28;20116;-62
2023/10/03 03:49:12;;;;;;;23.92;13.68;;;18.30;99.90;;;;;;5067811;28;20445;-61
2023/10/03 03:51:38;;;;;;;30.27;17.05;;;18.30;99.90;;;;;;5068842;28;20123;-61
2023/10/03 03:54:12;;;;;;;29.48;15.55;;;18.30;99.90;;;;;;5069889;28;20181;-61
2023/10/03 03:56:39;;;;;;;26.90;15.37;;;18.30;99.90;;;;;;5057870;28;20060;-61
2023/10/03 03:59:05;;;;;;;25.90;15.27;;;18.30;99.90;;;;;;5054917;28;20041;-61
2023/10/03 04:01:33;;;;;;;27.13;16.45;;;18.30;99.90;;;;;;5053078;28;20045;-60
2023/10/03 04:03:59;;;;;;;28.25;14.55;;;18.30;99.90;;;;;;5072652;28;20044;-60
2023/10/03 04:06:25;;;;;;;30.08;15.98;;;18.30;99.90;;;;;;5071167;28;20390;-61
2023/10/03 04:08:51;;;;;;;29.65;17.30;;;18.20;99.90;;;;;;5052700;28;20119;-61
2023/10/03 04:11:17;;;;;;;34.47;17.52;;;18.30;99.90;;;;;;5052331;28;20045;-61
2023/10/03 04:13:55;;;;;;;28.63;14.68;;;18.20;99.90;;;;;;5053241;28;20041;-61
2023/10/03 04:16:21;;;;;;;27.80;15.48;;;18.10;99.90;;;;;;5069617;28;20033;-60
2023/10/03 04:18:51;;;;;;;27.60;15.15;;;18.20;99.90;;;;;;5062484;28;20044;-61
2023/10/03 04:21:17;;;;;;;28.63;15.23;;;18.20;99.90;;;;;;5072925;28;20514;-61
2023/10/03 04:23:44;;;;;;;24.73;14.45;;;18.20;99.90;;;;;;5071337;28;20052;-61
2023/10/03 04:26:10;;;;;;;25.20;14.32;;;18.20;99.90;;;;;;5044485;28;20045;-61
2023/10/03 04:28:38;;;;;;;28.25;15.50;;;18.30;99.90;;;;;;5037233;28;20033;-61
2023/10/03 04:31:04;;;;;;;33.08;16.65;;;18.40;99.90;;;;;;5052241;28;20044;-61
2023/10/03 04:33:30;;;;;;;28.60;14.85;;;18.40;99.90;;;;;;5052405;28;20478;-61
2023/10/03 04:35:56;;;;;;;21.73;13.68;;;18.50;99.90;;;;;;5053608;28;20037;-61
2023/10/03 04:38:22;;;;;;;28.00;14.40;;;18.60;99.90;;;;;;5071731;28;20537;-61
2023/10/03 04:40:48;;;;;;;26.80;14.05;;;18.60;99.90;;;;;;5072333;28;20132;-61
2023/10/03 04:43:14;;;;;;;27.08;13.90;;;18.70;99.90;;;;;;5072844;28;20401;-62
2023/10/03 04:45:46;;;;;;;26.88;13.10;;;18.70;99.90;;;;;;5072896;28;20048;-61
2023/10/03 04:48:12;;;;;;;23.60;14.02;;;18.80;99.90;;;;;;5032488;28;20038;-61
2023/10/03 04:50:40;;;;;;;28.10;15.93;;;18.80;99.90;;;;;;4995639;28;1115742;-61
2023/10/03 04:53:11;;;;;;;23.02;12.38;;;18.80;99.90;;;;;;5033118;28;20046;-60
2023/10/03 04:55:36;;;;;;;32.22;15.30;;;18.80;99.90;;;;;;5043623;28;20543;-60
2023/10/03 04:58:02;;;;;;;25.52;14.38;;;18.90;99.90;;;;;;5087658;28;20076;-60
2023/10/03 05:00:28;;;;;;;35.03;14.35;;;19.00;99.90;;;;;;5052464;28;20457;-61
2023/10/03 05:02:54;;;;;;;26.00;15.02;;;18.90;99.90;;;;;;5066415;28;20116;-60
2023/10/03 05:05:25;;;;;;;34.10;14.95;;;19.00;99.90;;;;;;5058930;28;20102;-61
2023/10/03 05:07:52;;;;;;;31.33;14.18;;;19.00;99.90;;;;;;5052424;28;20033;-60
2023/10/03 05:10:22;;;;;;;31.77;16.80;;;18.90;99.90;;;;;;5053331;28;20056;-60
2023/10/03 05:12:50;;;;;;;27.52;14.73;;;19.00;99.90;;;;;;5052306;28;20094;-60
2023/10/03 05:15:16;;;;;;;36.05;17.38;;;19.00;99.90;;;;;;5056661;28;20052;-60
2023/10/03 05:17:46;;;;;;;36.83;17.10;;;19.00;99.90;;;;;;5064713;28;20040;-60
2023/10/03 05:20:13;;;;;;;25.33;15.30;;;19.10;99.90;;;;;;5068829;28;20044;-62
2023/10/03 05:22:45;;;;;;;35.85;15.88;;;19.00;99.90;;;;;;5053696;28;20470;-61
2023/10/03 05:25:12;;;;;;;34.33;15.70;;;19.00;99.90;;;;;;5035832;28;20125;-60
2023/10/03 05:27:43;;;;;;;41.60;16.48;;;19.00;99.90;;;;;;5053382;28;20440;-60
2023/10/03 05:30:11;;;;;;;34.85;15.60;;;19.00;99.90;;;;;;5053851;28;20124;-60
2023/10/03 05:32:38;;;;;;;27.45;16.60;;;18.90;99.90;;;;;;5052724;28;20052;-60
2023/10/03 05:35:05;;;;;;;29.88;16.90;;;18.90;99.90;;;;;;5052284;28;20077;-60
2023/10/03 05:37:34;;;;;;;33.40;17.38;;;19.00;99.90;;;;;;5054476;28;20041;-61
2023/10/03 05:40:11;;;;;;;31.17;16.02;;;19.00;99.90;;;;;;5055104;28;20494;-61
2023/10/03 05:42:41;;;;;;;31.45;17.27;;;18.90;99.90;;;;;;5051835;28;20044;-61
2023/10/03 05:45:12;;;;;;;33.47;18.35;;;18.90;99.90;;;;;;5062799;28;20048;-60
2023/10/03 05:47:45;;;;;;;36.85;16.98;;;18.80;99.90;;;;;;5073844;28;20072;-60
2023/10/03 05:50:23;;;;;;;37.03;17.73;;;18.80;99.90;;;;;;5053826;28;20060;-61
2023/10/03 05:52:50;;;;;;;32.42;17.83;;;18.80;99.90;;;;;;5052530;28;20041;-60
2023/10/03 05:55:16;;;;;;;33.00;18.58;;;18.70;99.90;;;;;;5051489;28;20053;-61
2023/10/03 05:57:45;;;;;;;33.53;18.55;;;18.80;99.90;;;;;;5052549;28;20044;-61
2023/10/03 06:00:21;;;;;;;32.80;17.40;;;18.60;99.90;;;;;;5052410;28;20048;-61
2023/10/03 06:02:47;;;;;;;29.63;17.27;;;18.60;99.90;;;;;;5051479;28;20118;-61
2023/10/03 06:05:16;;;;;;;29.00;17.08;;;18.60;99.90;;;;;;5052268;28;20037;-61
2023/10/03 06:07:43;;;;;;;28.00;17.20;;;18.60;99.90;;;;;;5069923;28;20047;-61
2023/10/03 06:10:15;;;;;;;30.25;17.45;;;18.60;99.90;;;;;;5058459;28;20048;-60
2023/10/03 06:12:41;;;;;;;27.60;16.10;;;18.50;99.90;;;;;;5041004;28;20045;-61
2023/10/03 06:15:07;;;;;;;29.35;15.90;;;18.60;99.90;;;;;;5072175;28;20401;-61
2023/10/03 06:17:36;;;;;;;29.02;15.68;;;18.50;99.90;;;;;;5066147;28;20045;-60
2023/10/03 06:20:03;;;;;;;26.50;15.38;;;18.50;99.90;;;;;;5050952;28;20501;-61
2023/10/03 06:22:29;;;;;;;28.30;13.77;;;18.50;99.90;;;;;;5051668;28;20055;-61
2023/10/03 06:24:57;;;;;;;22.92;12.93;;;18.50;99.90;;;;;;5051340;28;20037;-61
2023/10/03 06:27:23;;;;;;;22.98;13.48;;;18.60;99.90;;;;;;5065108;28;20406;-61
2023/10/03 06:29:49;;;;;;;23.55;13.30;;;18.50;99.90;;;;;;5054583;28;20041;-61
2023/10/03 06:32:15;;;;;;;29.63;13.65;;;18.60;99.90;;;;;;5050686;28;20086;-60
2023/10/03 06:34:40;;;;;;;26.13;13.35;;;18.50;99.90;;;;;;5051381;28;20099;-60
2023/10/03 06:37:06;;;;;;;34.22;13.70;;;18.40;99.90;;;;;;5051193;28;20102;-60
2023/10/03 06:39:32;;;;;;;30.85;12.18;;;18.50;99.90;;;;;;5051522;28;20041;-60
2023/10/03 06:41:58;;;;;;;26.05;11.35;;;18.40;99.90;;;;;;5105692;28;20036;-61
2023/10/03 06:44:24;;;;;;;25.23;10.45;;;18.30;99.90;;;;;;5070598;28;20580;-61
2023/10/03 06:46:50;;;;;;;25.60;10.60;;;18.30;99.90;;;;;;5056907;28;20093;-61
2023/10/03 06:49:17;;;;;;;21.77;10.02;;;18.20;99.90;;;;;;5052420;28;20140;-61
2023/10/03 06:51:44;;;;;;;27.35;10.50;;;18.10;99.90;;;;;;5050410;28;20053;-61
2023/10/03 06:54:10;;;;;;;29.02;8.27;;;18.00;99.90;;;;;;5051185;28;20053;-61
2023/10/03 06:56:36;;;;;;;20.77;8.32;;;17.90;99.90;;;;;;5051155;28;20049;-60
2023/10/03 06:59:04;;;;;;;26.15;8.38;;;17.80;99.90;;;;;;5043143;28;20040;-60
2023/10/03 07:01:30;;;;;;;22.27;8.13;;;17.70;99.90;;;;;;5072054;28;20044;-61
2023/10/03 07:03:57;;;;;;;16.50;6.82;;;17.60;99.90;;;;;;5071357;28;20166;-61
2023/10/03 07:06:23;;;;;;;20.83;7.68;;;17.60;99.90;;;;;;5070108;28;20045;-62
2023/10/03 07:08:49;;;;;;;15.32;5.70;;;17.50;99.90;;;;;;5063168;28;20461;-60
2023/10/03 07:11:16;;;;;;;18.48;5.97;;;17.50;99.90;;;;;;5055190;28;20071;-60
2023/10/03 07:13:45;;;;;;;16.23;6.13;;;17.40;99.90;;;;;;5069750;28;20115;-60
2023/10/03 07:16:11;;;;;;;13.02;4.72;;;17.30;99.90;;;;;;5069292;28;20028;-60
2023/10/03 07:18:39;;;;;;;11.43;3.22;;;17.30;99.90;;;;;;5069757;28;20041;-60
2023/10/03 07:21:05;;;;;;;12.85;3.80;;;17.20;99.90;;;;;;5042097;28;20525;-60
2023/10/03 07:23:31;;;;;;;13.40;3.83;;;17.10;99.90;;;;;;5050614;28;20039;-61
2023/10/03 07:25:56;;;;;;;9.63;3.50;;;17.20;99.90;;;;;;5067572;28;20091;-60
2023/10/03 07:28:22;;;;;;;11.13;2.83;;;17.00;99.90;;;;;;5049957;28;20052;-60
2023/10/03 07:30:48;;;;;;;10.80;2.92;;;16.90;99.90;;;;;;5051822;28;20044;-61
2023/10/03 07:33:14;;;;;;;11.07;3.40;;;17.00;99.90;;;;;;5050762;28;20397;-60
2023/10/03 07:35:41;;;;;;;11.05;3.25;;;16.80;99.90;;;;;;5049976;28;20041;-61
2023/10/03 07:38:10;;;;;;;13.75;3.17;;;16.70;99.90;;;;;;5050628;28;20127;-61
2023/10/03 07:40:38;;;;;;;10.77;2.70;;;16.60;99.90;;;;;;5060653;28;20095;-61
2023/10/03 07:43:09;;;;;;;14.32;2.80;;;16.60;99.90;;;;;;5070984;28;20044;-61
2023/10/03 07:45:37;;;;;;;8.50;2.78;;;16.60;99.90;;;;;;5070339;28;20469;-62
2023/10/03 07:48:05;;;;;;;8.20;2.33;;;16.50;99.90;;;;;;5054895;28;20379;-61
2023/10/03 07:50:34;;;;;;;9.52;1.70;;;16.50;99.90;;;;;;5065090;28;20098;-61
2023/10/03 07:52:59;;;;;;;7.82;2.08;;;16.50;99.90;;;;;;5057931;28;20482;-61
2023/10/03 07:55:25;;;;;;;7.88;1.85;;;16.50;99.90;;;;;;5051888;28;20037;-61
2023/10/03 07:57:54;;;;;;;8.48;1.90;;;16.50;99.90;;;;;;5051872;28;20049;-61
2023/10/03 08:00:21;;;;;;;7.18;2.13;;;16.50;99.90;;;;;;5050368;28;20464;-61
2023/10/03 08:02:49;;;;;;;8.25;2.20;;;16.50;99.90;;;;;;5038619;28;20036;-61
2023/10/03 08:05:16;;;;;;;4.38;1.25;;;16.50;99.90;;;;;;5048013;28;20053;-60
2023/10/03 08:07:47;;;;;;;6.25;1.60;;;16.50;99.90;;;;;;5049130;28;20037;-60
2023/10/03 08:10:16;;;;;;;8.70;1.42;;;16.50;99.90;;;;;;5048201;28;20049;-61
2023/10/03 08:12:43;;;;;;;7.53;1.65;;;16.50;99.90;;;;;;5045261;28;20051;-61
2023/10/03 08:15:17;;;;;;;6.88;1.85;;;16.60;99.90;;;;;;5052105;28;20140;-61
2023/10/03 08:17:53;;;;;;;7.68;1.70;;;16.60;99.90;;;;;;5064076;28;20040;-61
2023/10/03 08:20:23;;;;;;;10.80;1.40;;;16.60;99.90;;;;;;5055873;28;20491;-61
2023/10/03 08:22:51;;;;;;;7.68;1.75;;;16.60;99.90;;;;;;5061826;28;20102;-61
2023/10/03 08:25:21;;;;;;;4.28;1.10;;;16.60;99.90;;;;;;5047026;28;20041;-61
2023/10/03 08:27:49;;;;;;;4.70;1.30;;;16.60;99.90;;;;;;5048569;28;20491;-61
2023/10/03 08:30:29;;;;;;;6.35;1.42;;;16.40;99.90;;;;;;5058323;28;20527;-61
2023/10/03 08:33:06;;;;;;;5.65;1.33;;;16.20;99.90;;;;;;5052967;28;20049;-61
2023/10/03 08:35:35;;;;;;;7.22;1.38;;;16.10;99.90;;;;;;5063468;28;20124;-61
2023/10/03 08:38:13;;;;;;;6.65;1.55;;;16.00;99.90;;;;;;5045898;28;20482;-61
2023/10/03 08:40:44;;;;;;;11.52;1.80;;;15.90;99.90;;;;;;5053179;28;20132;-61
2023/10/03 08:43:11;;;;;;;5.07;1.20;;;15.80;99.90;;;;;;5056886;28;20091;-61
2023/10/03 08:45:52;;;;;;;6.25;1.10;;;15.80;99.90;;;;;;5068499;28;20033;-60
2023/10/03 08:48:26;;;;;;;6.40;1.10;;;15.70;99.90;;;;;;5061985;28;20049;-61
2023/10/03 08:50:57;;;;;;;5.83;1.27;;;15.60;99.90;;;;;;5049269;28;20414;-61
2023/10/03 08:53:27;;;;;;;4.00;0.60;;;15.40;99.90;;;;;;5056143;28;20500;-61
2023/10/03 08:55:58;;;;;;;6.18;1.00;;;15.40;99.90;;;;;;5055103;28;20500;-61
2023/10/03 08:58:25;;;;;;;6.68;1.00;;;15.30;99.90;;;;;;5083733;28;20045;-61
2023/10/03 09:00:58;;;;;;;7.55;1.70;;;15.30;99.90;;;;;;5051573;28;20056;-60
2023/10/03 09:03:29;;;;;;;8.52;2.22;;;15.40;99.90;;;;;;5049812;28;20083;-61
2023/10/03 09:05:58;;;;;;;5.47;1.50;;;15.40;99.90;;;;;;5049851;28;20045;-61
2023/10/03 09:08:27;;;;;;;7.60;1.45;;;15.30;99.90;;;;;;5076029;28;20075;-61
2023/10/03 09:10:55;;;;;;;6.97;1.92;;;15.30;99.90;;;;;;5062402;28;20049;-61
2023/10/03 09:13:28;;;;;;;6.28;1.33;;;15.30;99.90;;;;;;5048728;28;20037;-60
2023/10/03 09:16:07;;;;;;;10.15;1.83;;;15.30;99.90;;;;;;5050101;28;20044;-61
2023/10/03 09:18:43;;;;;;;6.47;1.55;;;15.30;99.90;;;;;;5059599;28;20507;-61
2023/10/03 09:21:23;;;;;;;4.10;0.88;;;15.30;99.90;;;;;;5067775;28;20056;-61
2023/10/03 09:24:14;;;;;;;7.07;2.17;;;15.40;99.90;;;;;;5058744;28;20397;-61
2023/10/03 09:26:46;;;;;;;6.68;1.40;;;15.40;99.90;;;;;;5051372;28;20048;-61
2023/10/03 09:29:32;;;;;;;7.22;1.83;;;15.30;99.90;;;;;;5058765;28;20055;-61
2023/10/03 09:31:59;;;;;;;7.18;1.38;;;15.40;99.90;;;;;;5064333;28;20051;-60
2023/10/03 09:34:32;;;;;;;6.43;1.27;;;15.40;99.90;;;;;;5070116;28;20056;-60
2023/10/03 09:37:02;;;;;;;8.40;2.28;;;15.50;99.90;;;;;;5038173;28;20047;-60
2023/10/03 09:39:39;;;;;;;5.75;1.20;;;15.50;99.90;;;;;;5053499;28;20792;-60
2023/10/03 09:42:15;;;;;;;8.65;1.77;;;15.50;99.90;;;;;;5069148;28;20090;-60
2023/10/03 09:44:49;;;;;;;8.95;2.25;;;15.60;99.90;;;;;;5043387;28;20046;-60
2023/10/03 09:47:18;;;;;;;5.82;1.40;;;15.70;99.90;;;;;;5063889;28;20040;-60
2023/10/03 09:49:47;;;;;;;6.25;1.52;;;15.60;99.90;;;;;;5041261;28;20422;-61
2023/10/03 09:52:22;;;;;;;7.25;1.60;;;15.70;99.90;;;;;;5061644;28;20455;-61
2023/10/03 09:54:53;;;;;;;5.18;1.38;;;15.70;99.90;;;;;;5047760;28;20087;-60
2023/10/03 09:57:23;;;;;;;4.68;1.15;;;15.70;99.90;;;;;;5062506;28;20533;-61
2023/10/03 09:59:50;;;;;;;6.28;1.30;;;15.70;99.90;;;;;;5060153;28;20128;-60
2023/10/03 10:02:47;;;;;;;6.68;1.17;;;15.80;99.90;;;;;;5039872;28;20441;-61
2023/10/03 10:05:27;;;;;;;5.00;0.95;;;15.70;99.90;;;;;;5052923;28;20045;-60
2023/10/03 10:07:58;;;;;;;7.75;1.42;;;15.70;99.90;;;;;;5059301;28;20036;-61
2023/10/03 10:10:25;;;;;;;7.88;2.00;;;15.70;99.90;;;;;;5049302;28;20053;-61
2023/10/03 10:13:13;;;;;;;9.20;2.15;;;15.70;99.90;;;;;;5050813;28;20504;-60
2023/10/03 10:16:01;;;;;;;6.70;1.75;;;15.60;99.90;;;;;;5033187;28;20053;-61
2023/10/03 10:18:45;;;;;;;5.15;1.10;;;15.60;99.90;;;;;;5036795;28;20577;-61
2023/10/03 10:21:20;;;;;;;9.15;1.35;;;15.50;99.90;;;;;;5049287;28;20044;-60
2023/10/03 10:24:04;;;;;;;;;;;15.50;99.90;;;;;;5066402;28;20132;-60
2023/10/03 10:26:31;;;;;;;4.65;1.63;;;15.30;99.90;;;;;;5050577;28;19962;-60
2023/10/03 10:29:05;;;;;;;7.43;1.70;;;15.20;99.90;;;;;;5093231;28;20040;-62
2023/10/03 10:31:39;;;;;;;9.50;1.60;;;15.00;99.90;;;;;;5057139;28;20067;-60
2023/10/03 10:34:18;;;;;;;5.53;1.63;;;14.90;99.90;;;;;;5072057;28;20048;-61
2023/10/03 10:37:09;;;;;;;5.32;1.40;;;14.90;99.90;;;;;;5063317;28;20052;-62
2023/10/03 10:39:54;;;;;;;6.75;1.40;;;14.90;99.90;;;;;;5034942;28;20060;-61
2023/10/03 10:42:24;;;;;;;6.30;1.60;;;14.90;99.90;;;;;;5051672;28;20064;-62
2023/10/03 10:45:14;;;;;;;5.57;1.50;;;14.80;99.90;;;;;;5054961;28;20032;-62
2023/10/03 10:47:58;;;;;;;5.97;1.73;;;14.90;99.90;;;;;;5054976;28;20041;-61
2023/10/03 10:50:27;;;;;;;12.07;2.90;;;14.70;99.90;;;;;;5050684;28;20157;-62
2023/10/03 10:53:02;;;;;;;8.60;1.75;;;14.60;99.90;;;;;;5053927;28;20086;-60
2023/10/03 10:55:28;;;;;;;8.02;2.42;;;14.50;99.90;;;;;;5058840;28;20043;-61
2023/10/03 10:58:12;;;;;;;9.05;2.47;;;14.40;99.90;;;;;;5052728;28;20076;-60
2023/10/03 11:00:38;;;;;;;7.78;3.08;;;14.30;99.90;;;;;;5051026;28;20512;-61
2023/10/03 11:03:06;;;;;;;9.70;2.35;;;14.20;99.90;;;;;;5052780;28;20559;-60
2023/10/03 11:05:44;;;;;;;11.48;2.85;;;14.20;99.90;;;;;;5061009;28;20179;-60
2023/10/03 11:08:10;;;;;;;7.93;2.50;;;14.20;99.90;;;;;;5031557;28;20379;-60
2023/10/03 11:10:46;;;;;;;10.13;3.08;;;14.30;99.90;;;;;;5085729;28;20132;-61
2023/10/03 11:13:12;;;;;;;8.52;2.58;;;14.30;99.90;;;;;;5056795;28;20049;-61
2023/10/03 11:15:45;;;;;;;11.20;2.80;;;14.40;99.90;;;;;;5066385;28;20051;-61
2023/10/03 11:18:11;;;;;;;6.88;2.72;;;14.40;99.90;;;;;;5053101;28;20419;-62
2023/10/03 11:20:37;;;;;;;8.60;2.47;;;14.30;99.90;;;;;;5061754;28;20120;-61
2023/10/03 11:23:03;;;;;;;9.77;2.95;;;14.30;99.90;;;;;;5068284;28;20037;-62
2023/10/03 11:25:28;;;;;;;7.20;3.25;;;14.30;99.90;;;;;;5056306;28;20036;-66
2023/10/03 11:28:05;;;;;;;9.18;2.30;;;14.30;99.90;;;;;;5050994;28;20036;-63
2023/10/03 11:30:31;;;;;;;6.82;2.40;;;14.20;99.90;;;;;;5051307;28;20049;-64
2023/10/03 11:33:01;;;;;;;5.70;2.08;;;14.10;99.90;;;;;;5060163;28;20433;-63
2023/10/03 11:35:27;;;;;;;6.32;2.53;;;14.00;99.90;;;;;;5051132;28;20128;-63
2023/10/03 11:37:54;;;;;;;9.07;2.28;;;14.00;99.90;;;;;;5054446;28;20120;-63
2023/10/03 11:40:22;;;;;;;8.15;2.20;;;14.00;99.90;;;;;;5051151;28;20041;-63
2023/10/03 11:43:03;;;;;;;8.30;2.45;;;14.00;99.90;;;;;;5065619;28;20067;-64
2023/10/03 11:45:29;;;;;;;7.13;2.53;;;14.00;99.90;;;;;;5052307;28;20037;-63
2023/10/03 11:48:01;;;;;;;8.43;2.95;;;14.00;99.90;;;;;;5065580;28;20059;-63
2023/10/03 11:50:28;;;;;;;8.48;2.85;;;14.10;99.90;;;;;;5070314;28;20067;-64
2023/10/03 11:52:59;;;;;;;6.22;2.55;;;14.20;99.90;;;;;;5068738;28;20044;-64
2023/10/03 11:55:26;;;;;;;9.25;3.25;;;14.20;99.90;;;;;;5048924;28;20532;-64
2023/10/03 11:57:52;;;;;;;9.63;2.50;;;14.30;99.90;;;;;;5055714;28;20049;-63
2023/10/03 12:00:17;;;;;;;10.02;3.20;;;14.30;99.90;;;;;;5050057;28;20052;-64
2023/10/03 12:02:47;;;;;;;6.68;1.92;;;14.40;99.90;;;;;;5052640;28;20116;-63
2023/10/03 12:05:13;;;;;;;9.38;2.88;;;14.50;99.90;;;;;;5053127;28;20399;-63
2023/10/03 12:07:40;;;;;;;7.72;2.90;;;14.60;99.90;;;;;;5060134;28;20529;-63
2023/10/03 12:10:10;;;;;;;7.78;2.72;;;14.70;99.90;;;;;;5050608;28;20056;-63
2023/10/03 12:12:37;;;;;;;7.78;2.67;;;14.70;99.90;;;;;;5061412;28;20037;-63
2023/10/03 12:15:07;;;;;;;7.85;2.80;;;14.80;99.90;;;;;;5069584;28;20048;-63
2023/10/03 12:17:33;;;;;;;8.43;2.38;;;14.90;99.90;;;;;;5068089;28;20036;-63
2023/10/03 12:19:59;;;;;;;7.28;2.97;;;14.80;99.90;;;;;;5054871;28;20049;-64
2023/10/03 12:22:24;;;;;;;8.35;2.88;;;15.00;99.90;;;;;;5058019;28;20413;-64
2023/10/03 12:24:51;;;;;;;9.75;2.58;;;15.00;99.90;;;;;;5053204;28;20048;-64
2023/10/03 12:27:17;;;;;;;9.85;3.03;;;15.00;99.90;;;;;;5054301;28;20045;-64
2023/10/03 12:29:43;;;;;;;8.30;2.58;;;15.10;99.90;;;;;;5053178;28;20402;-64
2023/10/03 12:32:09;;;;;;;10.88;3.15;;;15.10;99.90;;;;;;5054159;28;20406;-63
2023/10/03 12:34:34;;;;;;;11.82;2.97;;;15.20;99.90;;;;;;5053886;28;20040;-63
2023/10/03 12:37:03;;;;;;;10.77;2.85;;;15.30;99.90;;;;;;5054645;28;20498;-63
2023/10/03 12:39:31;;;;;;;5.65;2.08;;;15.30;99.90;;;;;;5053730;28;20088;-63
2023/10/03 12:41:56;;;;;;;10.32;2.83;;;15.40;99.90;;;;;;5054363;28;20075;-64
2023/10/03 12:44:22;;;;;;;10.25;2.83;;;15.40;99.90;;;;;;5055397;28;20029;-63
2023/10/03 12:46:49;;;;;;;13.93;3.22;;;15.50;99.90;;;;;;5053759;28;20049;-63
2023/10/03 12:49:15;;;;;;;10.15;2.45;;;15.60;99.90;;;;;;5053412;28;20053;-64
2023/10/03 12:51:42;;;;;;;7.18;2.10;;;15.60;99.90;;;;;;5062174;28;20044;-64